sensor_id;sensor_type;location;lat;lon;timestamp;temperature;humidity
975;DHT22;6115;49.296;10.602;2022-12-15T00:03:05;-2.20;63.50
975;DHT22;6115;49.296;10.602;2022-12-15T00:08:24;-2.20;63.40
975;DHT22;6115;49.296;10.602;2022-12-15T00:13:43;-2.10;63.60
975;DHT22;6115;49.296;10.602;2022-12-15T00:19:03;-2.00;63.30
975;DHT22;6115;49.296;10.602;2022-12-15T00:24:22;-2.00;62.70
975;DHT22;6115;49.296;10.602;2022-12-15T00:29:41;-2.00;62.60
975;DHT22;6115;49.296;10.602;2022-12-15T00:35:00;-2.00;62.40
975;DHT22;6115;49.296;10.602;2022-12-15T00:40:19;-2.00;62.60
975;DHT22;6115;49.296;10.602;2022-12-15T00:45:20;-1.90;62.80
975;DHT22;6115;49.296;10.602;2022-12-15T00:50:20;-2.00;63.20
975;DHT22;6115;49.296;10.602;2022-12-15T00:55:39;-1.90;62.70
975;DHT22;6115;49.296;10.602;2022-12-15T01:01:05;-1.90;62.60
975;DHT22;6115;49.296;10.602;2022-12-15T01:06:24;-1.90;62.50
975;DHT22;6115;49.296;10.602;2022-12-15T01:11:44;-1.90;62.90
975;DHT22;6115;49.296;10.602;2022-12-15T01:17:04;-1.90;62.50
975;DHT22;6115;49.296;10.602;2022-12-15T01:22:23;-1.90;62.70
975;DHT22;6115;49.296;10.602;2022-12-15T01:27:24;-1.90;62.60
975;DHT22;6115;49.296;10.602;2022-12-15T01:32:24;-1.80;62.70
975;DHT22;6115;49.296;10.602;2022-12-15T01:37:25;-1.80;62.50
975;DHT22;6115;49.296;10.602;2022-12-15T01:42:25;-1.80;62.50
975;DHT22;6115;49.296;10.602;2022-12-15T01:47:26;-1.90;62.60
975;DHT22;6115;49.296;10.602;2022-12-15T01:52:27;-1.90;62.90
975;DHT22;6115;49.296;10.602;2022-12-15T01:57:30;-1.80;62.30
975;DHT22;6115;49.296;10.602;2022-12-15T02:02:34;-1.90;62.40
975;DHT22;6115;49.296;10.602;2022-12-15T02:07:36;-1.90;62.90
975;DHT22;6115;49.296;10.602;2022-12-15T02:12:40;-1.80;62.80
975;DHT22;6115;49.296;10.602;2022-12-15T02:39:13;-1.90;63.00
975;DHT22;6115;49.296;10.602;2022-12-15T02:59:47;-1.80;63.10
975;DHT22;6115;49.296;10.602;2022-12-15T03:04:55;-1.70;63.00
975;DHT22;6115;49.296;10.602;2022-12-15T03:09:58;-1.80;63.00
975;DHT22;6115;49.296;10.602;2022-12-15T03:15:01;-1.80;63.30
975;DHT22;6115;49.296;10.602;2022-12-15T03:20:01;-1.90;63.50
975;DHT22;6115;49.296;10.602;2022-12-15T03:25:03;-1.90;63.90
975;DHT22;6115;49.296;10.602;2022-12-15T03:30:04;-1.90;63.90
975;DHT22;6115;49.296;10.602;2022-12-15T03:35:05;-1.90;63.90
975;DHT22;6115;49.296;10.602;2022-12-15T03:40:06;-1.70;63.90
975;DHT22;6115;49.296;10.602;2022-12-15T03:45:07;-1.70;63.60
975;DHT22;6115;49.296;10.602;2022-12-15T03:50:09;-1.80;63.60
975;DHT22;6115;49.296;10.602;2022-12-15T03:55:10;-2.00;63.90
975;DHT22;6115;49.296;10.602;2022-12-15T04:00:12;-2.00;64.10
975;DHT22;6115;49.296;10.602;2022-12-15T04:05:21;-1.90;64.00
975;DHT22;6115;49.296;10.602;2022-12-15T04:10:23;-1.80;64.10
975;DHT22;6115;49.296;10.602;2022-12-15T04:15:24;-1.80;63.50
975;DHT22;6115;49.296;10.602;2022-12-15T04:20:25;-1.90;64.00
975;DHT22;6115;49.296;10.602;2022-12-15T04:25:26;-1.90;63.90
975;DHT22;6115;49.296;10.602;2022-12-15T04:30:50;-2.00;63.90
975;DHT22;6115;49.296;10.602;2022-12-15T04:36:11;-2.10;64.40
975;DHT22;6115;49.296;10.602;2022-12-15T04:41:32;-2.00;64.90
975;DHT22;6115;49.296;10.602;2022-12-15T04:46:51;-1.90;64.80
975;DHT22;6115;49.296;10.602;2022-12-15T04:52:10;-1.90;64.50
975;DHT22;6115;49.296;10.602;2022-12-15T04:57:29;-1.90;64.30
975;DHT22;6115;49.296;10.602;2022-12-15T05:02:48;-1.90;64.70
975;DHT22;6115;49.296;10.602;2022-12-15T05:08:08;-1.90;64.40
975;DHT22;6115;49.296;10.602;2022-12-15T05:13:27;-1.80;64.20
975;DHT22;6115;49.296;10.602;2022-12-15T05:18:46;-1.80;64.10
975;DHT22;6115;49.296;10.602;2022-12-15T05:24:05;-1.70;64.10
975;DHT22;6115;49.296;10.602;2022-12-15T05:29:24;-1.80;64.10
975;DHT22;6115;49.296;10.602;2022-12-15T05:34:43;-1.70;64.10
975;DHT22;6115;49.296;10.602;2022-12-15T05:39:44;-1.80;64.10
975;DHT22;6115;49.296;10.602;2022-12-15T05:44:44;-1.80;64.10
975;DHT22;6115;49.296;10.602;2022-12-15T05:49:45;-1.80;64.10
975;DHT22;6115;49.296;10.602;2022-12-15T05:54:45;-1.90;64.50
975;DHT22;6115;49.296;10.602;2022-12-15T05:59:46;-1.70;64.60
975;DHT22;6115;49.296;10.602;2022-12-15T06:04:46;-1.70;64.10
975;DHT22;6115;49.296;10.602;2022-12-15T06:09:47;-1.80;64.10
975;DHT22;6115;49.296;10.602;2022-12-15T06:14:47;-1.90;64.00
975;DHT22;6115;49.296;10.602;2022-12-15T06:19:48;-1.90;64.60
975;DHT22;6115;49.296;10.602;2022-12-15T06:24:48;-2.00;65.00
975;DHT22;6115;49.296;10.602;2022-12-15T06:29:49;-1.90;65.20
975;DHT22;6115;49.296;10.602;2022-12-15T06:34:49;-1.90;65.20
975;DHT22;6115;49.296;10.602;2022-12-15T06:39:50;-1.80;65.80
975;DHT22;6115;49.296;10.602;2022-12-15T06:44:50;-1.80;65.00
975;DHT22;6115;49.296;10.602;2022-12-15T06:49:51;-1.90;64.60
975;DHT22;6115;49.296;10.602;2022-12-15T06:54:51;-2.00;64.70
975;DHT22;6115;49.296;10.602;2022-12-15T06:59:52;-2.00;65.10
975;DHT22;6115;49.296;10.602;2022-12-15T07:04:52;-1.90;64.80
975;DHT22;6115;49.296;10.602;2022-12-15T07:09:53;-2.00;64.90
975;DHT22;6115;49.296;10.602;2022-12-15T07:14:54;-2.00;65.20
975;DHT22;6115;49.296;10.602;2022-12-15T07:19:55;-2.00;65.50
975;DHT22;6115;49.296;10.602;2022-12-15T07:24:55;-2.00;65.90
975;DHT22;6115;49.296;10.602;2022-12-15T07:29:56;-2.00;65.90
975;DHT22;6115;49.296;10.602;2022-12-15T07:34:56;-1.90;66.00
975;DHT22;6115;49.296;10.602;2022-12-15T07:39:57;-1.90;65.90
975;DHT22;6115;49.296;10.602;2022-12-15T07:44:58;-1.80;65.70
975;DHT22;6115;49.296;10.602;2022-12-15T07:49:58;-1.80;65.90
975;DHT22;6115;49.296;10.602;2022-12-15T07:54:59;-1.70;65.50
975;DHT22;6115;49.296;10.602;2022-12-15T07:59:59;-1.90;65.30
975;DHT22;6115;49.296;10.602;2022-12-15T08:05:00;-1.80;65.70
975;DHT22;6115;49.296;10.602;2022-12-15T08:10:01;-1.70;65.50
975;DHT22;6115;49.296;10.602;2022-12-15T08:15:01;-1.60;65.20
975;DHT22;6115;49.296;10.602;2022-12-15T08:20:02;-1.50;64.40
975;DHT22;6115;49.296;10.602;2022-12-15T08:25:03;-1.40;64.50
975;DHT22;6115;49.296;10.602;2022-12-15T08:30:04;-1.30;64.50
975;DHT22;6115;49.296;10.602;2022-12-15T08:35:06;-1.30;64.60
975;DHT22;6115;49.296;10.602;2022-12-15T08:40:08;-1.30;64.50
975;DHT22;6115;49.296;10.602;2022-12-15T08:45:09;-1.30;64.50
975;DHT22;6115;49.296;10.602;2022-12-15T08:50:11;-1.20;64.60
975;DHT22;6115;49.296;10.602;2022-12-15T08:55:11;-1.10;64.30
975;DHT22;6115;49.296;10.602;2022-12-15T09:00:12;-1.10;64.10
975;DHT22;6115;49.296;10.602;2022-12-15T09:05:13;-0.90;63.70
975;DHT22;6115;49.296;10.602;2022-12-15T09:10:14;-1.00;63.60
975;DHT22;6115;49.296;10.602;2022-12-15T09:15:15;-1.00;63.20
975;DHT22;6115;49.296;10.602;2022-12-15T09:20:16;-0.90;63.10
975;DHT22;6115;49.296;10.602;2022-12-15T09:25:16;-0.90;62.90
975;DHT22;6115;49.296;10.602;2022-12-15T09:30:17;-1.00;62.90
975;DHT22;6115;49.296;10.602;2022-12-15T09:35:18;-0.80;63.30
975;DHT22;6115;49.296;10.602;2022-12-15T09:40:19;-0.50;61.90
975;DHT22;6115;49.296;10.602;2022-12-15T09:45:24;-0.50;62.20
975;DHT22;6115;49.296;10.602;2022-12-15T09:50:33;-0.50;63.20
975;DHT22;6115;49.296;10.602;2022-12-15T09:55:35;-0.40;62.10
975;DHT22;6115;49.296;10.602;2022-12-15T10:00:53;-0.20;62.00
975;DHT22;6115;49.296;10.602;2022-12-15T10:11:37;-0.10;61.20
975;DHT22;6115;49.296;10.602;2022-12-15T10:22:01;0.30;60.30
975;DHT22;6115;49.296;10.602;2022-12-15T10:27:12;0.30;60.40
975;DHT22;6115;49.296;10.602;2022-12-15T10:37:44;0.20;61.10
975;DHT22;6115;49.296;10.602;2022-12-15T10:42:47;0.50;60.60
975;DHT22;6115;49.296;10.602;2022-12-15T10:47:57;0.40;60.20
975;DHT22;6115;49.296;10.602;2022-12-15T10:53:07;0.50;59.80
975;DHT22;6115;49.296;10.602;2022-12-15T10:58:21;0.60;60.20
975;DHT22;6115;49.296;10.602;2022-12-15T11:03:24;0.50;60.10
975;DHT22;6115;49.296;10.602;2022-12-15T11:08:25;0.50;60.00
975;DHT22;6115;49.296;10.602;2022-12-15T11:13:27;0.40;60.30
975;DHT22;6115;49.296;10.602;2022-12-15T11:18:34;0.60;60.00
975;DHT22;6115;49.296;10.602;2022-12-15T11:24:01;0.70;59.60
975;DHT22;6115;49.296;10.602;2022-12-15T11:29:26;0.70;59.20
975;DHT22;6115;49.296;10.602;2022-12-15T11:34:35;0.60;59.30
975;DHT22;6115;49.296;10.602;2022-12-15T12:06:55;0.80;58.60
975;DHT22;6115;49.296;10.602;2022-12-15T12:12:21;0.80;58.70
975;DHT22;6115;49.296;10.602;2022-12-15T12:22:33;0.70;59.50
975;DHT22;6115;49.296;10.602;2022-12-15T12:33:08;0.70;59.50
975;DHT22;6115;49.296;10.602;2022-12-15T12:38:11;0.80;59.30
975;DHT22;6115;49.296;10.602;2022-12-15T12:43:33;0.80;58.90
975;DHT22;6115;49.296;10.602;2022-12-15T12:48:36;0.70;59.20
975;DHT22;6115;49.296;10.602;2022-12-15T12:53:38;0.80;59.30
975;DHT22;6115;49.296;10.602;2022-12-15T12:58:39;0.70;59.50
975;DHT22;6115;49.296;10.602;2022-12-15T13:03:45;0.50;60.00
975;DHT22;6115;49.296;10.602;2022-12-15T13:08:48;0.50;60.00
975;DHT22;6115;49.296;10.602;2022-12-15T13:13:49;0.50;59.80
975;DHT22;6115;49.296;10.602;2022-12-15T13:24:04;0.40;60.10
975;DHT22;6115;49.296;10.602;2022-12-15T13:29:08;0.40;60.10
975;DHT22;6115;49.296;10.602;2022-12-15T13:34:13;0.30;60.10
975;DHT22;6115;49.296;10.602;2022-12-15T13:44:31;0.30;60.30
975;DHT22;6115;49.296;10.602;2022-12-15T13:49:45;0.10;60.90
975;DHT22;6115;49.296;10.602;2022-12-15T13:54:53;0.30;60.50
975;DHT22;6115;49.296;10.602;2022-12-15T14:00:10;0.30;59.90
975;DHT22;6115;49.296;10.602;2022-12-15T14:05:21;0.20;59.70
975;DHT22;6115;49.296;10.602;2022-12-15T14:10:48;0.10;59.80
975;DHT22;6115;49.296;10.602;2022-12-15T14:16:01;-0.20;60.20
975;DHT22;6115;49.296;10.602;2022-12-15T14:21:17;-0.10;60.30
975;DHT22;6115;49.296;10.602;2022-12-15T14:26:25;-0.40;60.50
975;DHT22;6115;49.296;10.602;2022-12-15T14:31:27;-0.40;60.50
975;DHT22;6115;49.296;10.602;2022-12-15T14:36:28;-0.40;61.00
975;DHT22;6115;49.296;10.602;2022-12-15T14:41:36;-0.50;61.20
975;DHT22;6115;49.296;10.602;2022-12-15T14:46:37;-0.40;61.20
975;DHT22;6115;49.296;10.602;2022-12-15T14:51:41;-0.50;61.30
975;DHT22;6115;49.296;10.602;2022-12-15T14:56:43;-0.50;61.10
975;DHT22;6115;49.296;10.602;2022-12-15T15:01:58;-0.50;61.30
975;DHT22;6115;49.296;10.602;2022-12-15T15:07:03;-0.60;60.80
975;DHT22;6115;49.296;10.602;2022-12-15T15:27:38;-1.20;62.50
975;DHT22;6115;49.296;10.602;2022-12-15T15:32:51;-1.40;63.20
975;DHT22;6115;49.296;10.602;2022-12-15T15:37:52;-1.40;63.40
975;DHT22;6115;49.296;10.602;2022-12-15T15:42:56;-1.40;63.70
975;DHT22;6115;49.296;10.602;2022-12-15T15:47:57;-1.30;63.70
975;DHT22;6115;49.296;10.602;2022-12-15T15:52:58;-1.50;63.50
975;DHT22;6115;49.296;10.602;2022-12-15T15:57:58;-1.50;64.40
975;DHT22;6115;49.296;10.602;2022-12-15T16:02:59;-1.60;64.30
975;DHT22;6115;49.296;10.602;2022-12-15T16:08:01;-1.70;64.10
975;DHT22;6115;49.296;10.602;2022-12-15T16:13:01;-1.80;64.80
975;DHT22;6115;49.296;10.602;2022-12-15T16:18:02;-1.80;65.10
975;DHT22;6115;49.296;10.602;2022-12-15T16:23:17;-1.70;65.00
975;DHT22;6115;49.296;10.602;2022-12-15T16:28:23;-1.70;64.90
975;DHT22;6115;49.296;10.602;2022-12-15T16:33:24;-1.90;65.20
975;DHT22;6115;49.296;10.602;2022-12-15T16:38:29;-2.00;65.70
975;DHT22;6115;49.296;10.602;2022-12-15T16:43:30;-2.00;66.10
975;DHT22;6115;49.296;10.602;2022-12-15T16:48:31;-2.00;66.40
975;DHT22;6115;49.296;10.602;2022-12-15T16:53:33;-2.10;66.30
975;DHT22;6115;49.296;10.602;2022-12-15T16:58:35;-2.30;66.70
975;DHT22;6115;49.296;10.602;2022-12-15T17:03:35;-2.40;67.40
975;DHT22;6115;49.296;10.602;2022-12-15T17:08:42;-2.40;68.20
975;DHT22;6115;49.296;10.602;2022-12-15T17:13:43;-2.30;68.30
975;DHT22;6115;49.296;10.602;2022-12-15T17:18:48;-2.40;68.30
975;DHT22;6115;49.296;10.602;2022-12-15T17:23:51;-2.50;68.20
975;DHT22;6115;49.296;10.602;2022-12-15T17:28:54;-2.40;68.30
975;DHT22;6115;49.296;10.602;2022-12-15T17:33:55;-2.40;68.30
975;DHT22;6115;49.296;10.602;2022-12-15T17:38:57;-2.40;68.30
975;DHT22;6115;49.296;10.602;2022-12-15T17:43:59;-2.40;68.30
975;DHT22;6115;49.296;10.602;2022-12-15T17:49:00;-2.30;68.40
975;DHT22;6115;49.296;10.602;2022-12-15T17:54:01;-2.40;68.30
975;DHT22;6115;49.296;10.602;2022-12-15T17:59:01;-2.50;68.20
975;DHT22;6115;49.296;10.602;2022-12-15T18:04:03;-2.50;68.30
975;DHT22;6115;49.296;10.602;2022-12-15T18:09:05;-2.60;68.70
975;DHT22;6115;49.296;10.602;2022-12-15T18:14:17;-2.70;69.00
975;DHT22;6115;49.296;10.602;2022-12-15T18:19:18;-2.70;69.30
975;DHT22;6115;49.296;10.602;2022-12-15T18:24:19;-2.70;70.20
975;DHT22;6115;49.296;10.602;2022-12-15T18:29:20;-2.70;69.60
975;DHT22;6115;49.296;10.602;2022-12-15T18:34:21;-2.70;69.70
975;DHT22;6115;49.296;10.602;2022-12-15T18:39:22;-2.80;69.50
975;DHT22;6115;49.296;10.602;2022-12-15T18:44:30;-2.90;69.60
975;DHT22;6115;49.296;10.602;2022-12-15T18:49:33;-2.90;69.70
975;DHT22;6115;49.296;10.602;2022-12-15T18:54:34;-2.90;70.00
975;DHT22;6115;49.296;10.602;2022-12-15T18:59:35;-2.90;69.90
975;DHT22;6115;49.296;10.602;2022-12-15T19:04:36;-2.90;70.00
975;DHT22;6115;49.296;10.602;2022-12-15T19:09:37;-2.90;70.00
975;DHT22;6115;49.296;10.602;2022-12-15T19:14:37;-2.90;70.30
975;DHT22;6115;49.296;10.602;2022-12-15T19:19:42;-3.00;70.10
975;DHT22;6115;49.296;10.602;2022-12-15T19:25:01;-3.00;70.30
975;DHT22;6115;49.296;10.602;2022-12-15T19:30:14;-3.00;70.20
975;DHT22;6115;49.296;10.602;2022-12-15T19:35:14;-3.10;70.10
975;DHT22;6115;49.296;10.602;2022-12-15T19:40:20;-3.20;70.20
975;DHT22;6115;49.296;10.602;2022-12-15T19:45:24;-3.10;70.50
975;DHT22;6115;49.296;10.602;2022-12-15T19:50:28;-3.10;70.30
975;DHT22;6115;49.296;10.602;2022-12-15T19:55:32;-3.10;70.20
975;DHT22;6115;49.296;10.602;2022-12-15T20:00:33;-3.10;70.30
975;DHT22;6115;49.296;10.602;2022-12-15T20:05:33;-3.10;70.30
975;DHT22;6115;49.296;10.602;2022-12-15T20:10:34;-3.10;70.10
975;DHT22;6115;49.296;10.602;2022-12-15T20:15:35;-3.10;70.10
975;DHT22;6115;49.296;10.602;2022-12-15T20:20:37;-3.10;70.00
975;DHT22;6115;49.296;10.602;2022-12-15T20:25:39;-3.10;69.90
975;DHT22;6115;49.296;10.602;2022-12-15T20:30:41;-3.10;70.00
975;DHT22;6115;49.296;10.602;2022-12-15T20:35:44;-3.00;70.00
975;DHT22;6115;49.296;10.602;2022-12-15T20:40:44;-2.90;69.90
975;DHT22;6115;49.296;10.602;2022-12-15T20:45:46;-2.90;69.60
975;DHT22;6115;49.296;10.602;2022-12-15T20:50:48;-2.90;69.40
975;DHT22;6115;49.296;10.602;2022-12-15T20:55:50;-2.80;69.30
975;DHT22;6115;49.296;10.602;2022-12-15T21:00:51;-2.60;69.20
975;DHT22;6115;49.296;10.602;2022-12-15T21:05:55;-2.60;68.70
975;DHT22;6115;49.296;10.602;2022-12-15T21:11:23;-2.70;68.30
975;DHT22;6115;49.296;10.602;2022-12-15T21:16:27;-2.60;68.20
975;DHT22;6115;49.296;10.602;2022-12-15T21:21:31;-2.60;68.10
975;DHT22;6115;49.296;10.602;2022-12-15T21:26:32;-2.50;68.20
975;DHT22;6115;49.296;10.602;2022-12-15T21:31:32;-2.40;68.30
975;DHT22;6115;49.296;10.602;2022-12-15T21:36:33;-2.30;68.40
975;DHT22;6115;49.296;10.602;2022-12-15T21:41:34;-2.20;67.80
975;DHT22;6115;49.296;10.602;2022-12-15T21:46:35;-2.10;67.10
975;DHT22;6115;49.296;10.602;2022-12-15T21:51:36;-2.10;66.90
975;DHT22;6115;49.296;10.602;2022-12-15T21:56:38;-2.00;66.40
975;DHT22;6115;49.296;10.602;2022-12-15T22:01:38;-2.00;66.20
975;DHT22;6115;49.296;10.602;2022-12-15T22:06:39;-1.90;65.70
975;DHT22;6115;49.296;10.602;2022-12-15T22:11:45;-2.00;65.60
975;DHT22;6115;49.296;10.602;2022-12-15T22:16:46;-1.90;66.50
975;DHT22;6115;49.296;10.602;2022-12-15T22:21:47;-1.90;65.60
975;DHT22;6115;49.296;10.602;2022-12-15T22:26:48;-1.90;66.30
975;DHT22;6115;49.296;10.602;2022-12-15T22:31:49;-1.80;65.30
975;DHT22;6115;49.296;10.602;2022-12-15T22:36:50;-1.80;66.00
975;DHT22;6115;49.296;10.602;2022-12-15T22:41:50;-1.70;64.70
975;DHT22;6115;49.296;10.602;2022-12-15T22:46:54;-1.60;64.20
975;DHT22;6115;49.296;10.602;2022-12-15T22:51:56;-1.60;64.20
975;DHT22;6115;49.296;10.602;2022-12-15T22:57:03;-1.60;64.20
975;DHT22;6115;49.296;10.602;2022-12-15T23:02:06;-1.50;64.30
975;DHT22;6115;49.296;10.602;2022-12-15T23:07:07;-1.50;64.40
975;DHT22;6115;49.296;10.602;2022-12-15T23:12:11;-1.40;63.90
975;DHT22;6115;49.296;10.602;2022-12-15T23:17:12;-1.40;63.70
975;DHT22;6115;49.296;10.602;2022-12-15T23:22:13;-1.40;63.50
975;DHT22;6115;49.296;10.602;2022-12-15T23:27:14;-1.40;63.20
975;DHT22;6115;49.296;10.602;2022-12-15T23:32:14;-1.30;62.90
975;DHT22;6115;49.296;10.602;2022-12-15T23:37:15;-1.30;62.80
975;DHT22;6115;49.296;10.602;2022-12-15T23:42:15;-1.30;62.80
975;DHT22;6115;49.296;10.602;2022-12-15T23:47:16;-1.30;63.00
975;DHT22;6115;49.296;10.602;2022-12-15T23:52:16;-1.30;63.00
975;DHT22;6115;49.296;10.602;2022-12-15T23:57:19;-1.30;63.20
